Gemmell, Minnesota
Current Conditions -  °F | °C
As of 9:14 AM on Saturday 25 Oct 2014 (Local Time) from KVWU Reporting Station
Clear Clear  
Wind Chill: 37°   Ceiling: Unl
Heat Index: 45°   Visibility: 10mi
Dew Point: 36°   Wind: 18mph
Humidity: 71%   Direction: 270°W
Pressure: 29.96"   Gusts: 23mph
Location:  47.9892°N, 94.2138°W
Report Text: KVWU 251414Z AUTO 27016G20KT 10SM CLR 07/02 A2996 RMK AO2
Loading
Personal Weather Stations






























Interactive Weather Map New forecast layout! Learn more

10-Day Weather Forecast

Advertisements
Track Severe Weather on mobile